GCRR/ACE METAR and TAF weather

Enter ICAO airport designator
Station Type Date Time Source
GCRR METAR 2018/01/22 20:00 UTC NOAA

GCRR 222000Z 02006KT CAVOK 16/12 Q1026


Station Type Date Time Source
GCRR Decoded METAR 2018/01/22 20:00 UTC NOAA

Lanzarote / Aeropuerto, Spain (GCRR) 28-57N 013-36W 21M
Jan 22, 2018 - 03:00 PM EST / 2018.01.22 2000 UTC
Wind: from the NNE (020 degrees) at 7 MPH (6 KT):0
Visibility: greater than 7 mile(s):0
Temperature: 60 F (16 C)
Dew Point: 53 F (12 C)
Relative Humidity: 77%
Pressure (altimeter): 30.30 in. Hg (1026 hPa)
ob: GCRR 222000Z 02006KT CAVOK 16/12 Q1026
cycle: 20

Station Type Date Time Source
GCRR TAF 2018/01/22 18:12 UTC NOAA

TAF
AMD TAF
AMD GCRR 221809Z 2218/2315 08015KT CAVOK TX20/2314Z TN13/2306Z
BECMG 2220/2221 02005KT
BECMG 2309/2310 09015KT


Example: see airport list